Terminal Aerodrome Forecast
Issued by NWS Charleston, WV

Current Version | Previous Version | Graphics & Text | Print | Product List | Glossary On
Versions: 1 2 3 4 5 6 7 8 9 10 11 12 13 14 15 16 17 18 19 20 21
000
FTUS41 KRLX 011733
TAFPKB
TAF
KPKB 011733Z 0118/0218 29008KT P6SM FEW060
     FM020100 32002KT P6SM SKC
     FM020800 00000KT 6SM BR SKC
     FM021000 00000KT 1SM BR BKN001
     FM021200 20002KT 4SM BR SCT002
     FM021300 21004KT P6SM SCT250
     FM021600 24006KT P6SM SCT050=

USA.gov is the U.S. government's official web portal to all federal, state and local government web resources and services.